Ida — C4CZ2 — position and weather

sailwx.info

Track history (hours):
 
Tides and Currents Weather Stations Pressure Air Temp Water Temp Dewpoint Dewpoint Depression Visibility Wind Speed Wind Dir Waves Ship Positions

Ida

Last reported at 2014-Oct-22 23:32 UTC. Time now 2014-Oct-23 02:22 UTC.
Position N 57°16' E 017°17'.

Length 82 m; draft 3.2 m.

Type: Cargo ship. MMSI: 210319000.

Date/timePositionNaut miles runAvg speedWind from/ knotsBaromVisibWave heightAir tempDewpointWater temp
2014-Oct-22 23:32N 57°16' E 017°17'85 7.1
2014-Oct-22 11:32N 55°57' E 016°23'46 7.7
2014-Oct-22 05:31N 55°34' E 015°12'9 9.3
2014-Oct-22 04:33N 55°29' E 014°58'9 9.2
2014-Oct-22 03:33N 55°25' E 014°44'9 9.0
2014-Oct-22 02:33N 55°19' E 014°32'9 9.0
2014-Oct-22 01:33N 55°12' E 014°21'8 8.3
2014-Oct-22 00:33N 55°10' E 014°07'9 8.6
2014-Oct-21 23:33N 55°11' E 013°52'10 8.6
2014-Oct-21 22:21N 55°12' E 013°34'17 9.0
2014-Oct-21 20:31N 55°14' E 013°05'8 8.7
2014-Oct-21 19:33N 55°15' E 012°51'8 8.1
2014-Oct-21 18:33N 55°19' E 012°38'7 7.2
2014-Oct-21 17:33N 55°26' E 012°40'8 7.8
2014-Oct-21 16:33N 55°34' E 012°42'8 8.3
2014-Oct-21 15:33N 55°42' E 012°41'9 8.7
2014-Oct-21 14:33N 55°51' E 012°40'8 8.5
2014-Oct-21 13:33N 55°59' E 012°38'8 7.9
2014-Oct-21 12:33N 56°06' E 012°32'9 8.5
2014-Oct-21 11:33N 56°14' E 012°25'9 9.1
2014-Oct-21 10:33N 56°22' E 012°19'10 9.1
2014-Oct-21 09:29N 56°32' E 012°15'9 8.9
2014-Oct-21 08:29N 56°40' E 012°09'9 9.2
2014-Oct-21 07:33N 56°49' E 012°05'11 9.4
2014-Oct-21 06:26N 56°59' E 011°59'9 9.8
2014-Oct-21 05:33N 57°06' E 011°53'1010.0
2014-Oct-21 04:33N 57°16' E 011°46'1010.5
2014-Oct-21 03:33N 57°26' E 011°40'9 9.4
2014-Oct-21 02:34N 57°35' E 011°38'8 8.1
2014-Oct-21 01:33N 57°41' E 011°49'7 7.0
2014-Oct-21 00:33N 57°44' E 012°00'7 6.7
2014-Oct-20 23:34N 57°51' E 012°00'9 8.7
2014-Oct-20 22:34N 57°59' E 012°08'9 9.0
2014-Oct-20 21:33N 58°08' E 012°07'5 5.0
2014-Oct-20 20:34N 58°13' E 012°09'4 4.3
2014-Oct-20 19:33N 58°16' E 012°15'2 1.6
2014-Oct-20 18:34N 58°17' E 012°17'4 4.0
2014-Oct-20 17:33N 58°21' E 012°21'4 4.5
2014-Oct-20 16:33N 58°25' E 012°21'9 9.1
2014-Oct-20 15:33N 58°31' E 012°33'9 9.2
2014-Oct-20 14:33N 58°39' E 012°45'9 9.1
2014-Oct-20 13:33N 58°43' E 012°60'4 0.1
2014-Oct-18 18:14N 58°40' E 012°55'6 9.0
2014-Oct-18 17:33N 58°36' E 012°47'9 9.0
2014-Oct-18 16:33N 58°30' E 012°33'9 8.9
2014-Oct-18 15:33N 58°25' E 012°20'4 4.3
2014-Oct-18 14:33N 58°20' E 012°21'5 5.3
2014-Oct-18 13:33N 58°16' E 012°16'0 0.3
2014-Oct-18 12:33N 58°16' E 012°15'6 6.0
2014-Oct-18 11:33N 58°11' E 012°07'4 3.8
2014-Oct-18 10:33N 58°08' E 012°07'5 5.5
2014-Oct-18 09:33N 58°02' E 012°09'7 6.6
2014-Oct-18 08:33N 57°56' E 012°04'7 6.7
2014-Oct-18 07:33N 57°50' E 012°01'6 6.2
2014-Oct-18 06:33N 57°44' E 011°60'7 6.6
2014-Oct-18 05:33N 57°41' E 011°48'7 7.4
2014-Oct-18 04:33N 57°37' E 011°36'8 7.6
2014-Oct-18 03:33N 57°43' E 011°28'8 7.6
2014-Oct-18 02:33N 57°50' E 011°22'8 7.8
2014-Oct-18 01:33N 57°57' E 011°15'8 7.9
2014-Oct-18 00:33N 58°04' E 011°10'8 7.6
2014-Oct-17 23:33N 58°12' E 011°06'8 7.6
2014-Oct-17 22:33N 58°19' E 011°02'8 7.6
2014-Oct-17 21:33N 58°26' E 010°58'8 7.8
2014-Oct-17 20:33N 58°34' E 010°53'8 7.9
2014-Oct-17 19:33N 58°41' E 010°49'8 8.1
2014-Oct-17 18:32N 58°49' E 010°47'9 8.7
2014-Oct-17 17:33N 58°58' E 010°45'6 5.9
2014-Oct-17 16:33N 59°01' E 010°55'7 6.7
2014-Oct-17 15:34N 59°07' E 010°58'4 4.1
2014-Oct-17 14:31N 59°11' E 010°57'0 0.0
2014-Oct-17 13:31N 59°11' E 010°57'0 0.0
2014-Oct-17 12:31N 59°11' E 010°57'0 0.0
2014-Oct-17 11:31N 59°11' E 010°57'0 0.0
2014-Oct-17 10:31N 59°11' E 010°57'0 0.0
2014-Oct-17 09:31N 59°11' E 010°57'0 0.0
2014-Oct-17 08:31N 59°11' E 010°57'0 0.0
2014-Oct-17 07:31N 59°11' E 010°57'0 0.0
2014-Oct-17 06:31N 59°11' E 010°57'0 0.0
2014-Oct-17 05:31N 59°11' E 010°57'0 0.0
2014-Oct-17 04:31N 59°11' E 010°57'0 0.0
2014-Oct-17 03:31N 59°11' E 010°57'0 0.0
2014-Oct-17 02:31N 59°11' E 010°57'0 0.0
2014-Oct-17 01:31N 59°11' E 010°57'0 0.0
2014-Oct-17 00:31N 59°11' E 010°57'0 0.0
2014-Oct-16 23:31N 59°11' E 010°57'0 0.0
2014-Oct-16 22:31N 59°11' E 010°57'0 0.0
2014-Oct-16 21:31N 59°11' E 010°57'0 0.0
2014-Oct-16 20:31N 59°11' E 010°57'0 0.0
2014-Oct-16 19:31N 59°11' E 010°57'0 0.0
2014-Oct-16 18:31N 59°11' E 010°57'0 0.0
2014-Oct-16 17:31N 59°11' E 010°57'0 0.0
2014-Oct-16 16:31N 59°11' E 010°57'0 0.0
2014-Oct-16 15:31N 59°11' E 010°57'0 0.0
2014-Oct-16 14:31N 59°11' E 010°57'0 0.0
2014-Oct-16 13:31N 59°11' E 010°57'0 0.0
2014-Oct-16 12:31N 59°11' E 010°57'0 0.0
2014-Oct-16 11:31N 59°11' E 010°57'0 0.0
2014-Oct-16 10:31N 59°11' E 010°57'0 0.0
2014-Oct-16 09:31N 59°11' E 010°57'0 0.0
2014-Oct-16 08:31N 59°11' E 010°57'0 0.0
2014-Oct-16 07:31N 59°11' E 010°57'0 0.0
2014-Oct-16 06:31N 59°11' E 010°57'0 0.0
2014-Oct-16 05:31N 59°11' E 010°57'0 0.0
2014-Oct-16 04:31N 59°11' E 010°57'0 0.0
2014-Oct-16 03:31N 59°11' E 010°57'0 0.0
2014-Oct-16 02:31N 59°11' E 010°57'0 0.0
2014-Oct-16 01:31N 59°11' E 010°57'0 0.0
2014-Oct-16 00:31N 59°11' E 010°57'0 0.0
2014-Oct-15 23:31N 59°11' E 010°57'0 0.0
2014-Oct-15 22:31N 59°11' E 010°57'0 0.0
2014-Oct-15 21:31N 59°11' E 010°57'0 0.0
2014-Oct-15 20:31N 59°11' E 010°57'0 0.0
2014-Oct-15 19:31N 59°11' E 010°57'0 0.0
2014-Oct-15 18:31N 59°11' E 010°57'0 0.0
2014-Oct-15 17:31N 59°11' E 010°57'0 0.0
2014-Oct-15 16:31N 59°11' E 010°57'0 0.0
2014-Oct-15 15:31N 59°11' E 010°57'0 0.0
2014-Oct-15 14:31N 59°11' E 010°57'0 0.0
2014-Oct-15 13:31N 59°11' E 010°57'0 0.0
2014-Oct-15 12:31N 59°11' E 010°57'0 0.0
2014-Oct-15 11:31N 59°11' E 010°57'0 0.0
2014-Oct-15 10:31N 59°11' E 010°57'0 0.0
2014-Oct-15 09:31N 59°11' E 010°57'0 0.0
2014-Oct-15 08:31N 59°11' E 010°57'0 0.0
2014-Oct-15 07:31N 59°11' E 010°57'0 0.0
2014-Oct-15 06:31N 59°11' E 010°57'0 0.0
2014-Oct-15 05:31N 59°11' E 010°57'0 0.0
2014-Oct-15 04:31N 59°11' E 010°57'0 0.0
2014-Oct-15 03:31N 59°11' E 010°57'0 0.0
2014-Oct-15 02:31N 59°11' E 010°57'0 0.0
2014-Oct-15 01:31N 59°11' E 010°57'0 0.0
2014-Oct-15 00:31N 59°11' E 010°57'0 0.0
2014-Oct-14 23:31N 59°11' E 010°57'0 0.0
2014-Oct-14 22:31N 59°11' E 010°57'0 0.0
2014-Oct-14 21:31N 59°11' E 010°57'0 0.0
2014-Oct-14 20:31N 59°11' E 010°57'0 0.0
2014-Oct-14 19:31N 59°11' E 010°57'0 0.0
2014-Oct-14 18:33N 59°11' E 010°57'7 6.5
2014-Oct-14 17:30N 59°05' E 010°58'6 6.4
2014-Oct-14 16:33N 59°01' E 010°48'17 8.7
2014-Oct-14 14:33N 58°44' E 010°47'10 9.7
2014-Oct-14 13:34N 58°35' E 010°54'1110.6
2014-Oct-14 12:33N 58°25' E 011°01'1010.0
2014-Oct-14 11:34N 58°16' E 011°11'8 8.4
2014-Oct-14 10:34N 58°16' E 011°27'0 0.2
2014-Oct-14 09:29N 58°17' E 011°27'0 0.0
2014-Oct-14 08:32N 58°17' E 011°27'0 0.0
2014-Oct-14 07:32N 58°17' E 011°27'0 0.0
2014-Oct-14 06:32N 58°17' E 011°27'0 0.0
2014-Oct-14 05:32N 58°17' E 011°27'0 0.0
2014-Oct-14 04:32N 58°17' E 011°27'0 0.0
2014-Oct-14 03:32N 58°17' E 011°27'0 0.0
2014-Oct-14 02:32N 58°17' E 011°27'0 0.0
2014-Oct-14 01:32N 58°17' E 011°27'0 0.0
2014-Oct-14 00:32N 58°17' E 011°27'0 0.0
2014-Oct-13 23:29N 58°17' E 011°27'0 0.0
2014-Oct-13 22:32N 58°17' E 011°27'0 0.0
2014-Oct-13 21:32N 58°17' E 011°27'0 0.0
2014-Oct-13 20:32N 58°17' E 011°27'0 0.0
2014-Oct-13 19:32N 58°17' E 011°27'0 0.0
2014-Oct-13 18:32N 58°17' E 011°27'0 0.0
2014-Oct-13 17:32N 58°17' E 011°27'0 0.0
2014-Oct-13 16:32N 58°17' E 011°27'0 0.0
2014-Oct-13 15:32N 58°17' E 011°27'0 0.0
2014-Oct-13 14:29N 58°17' E 011°27'0 0.0
2014-Oct-13 13:32N 58°17' E 011°27'0 0.0
2014-Oct-13 12:32N 58°17' E 011°27'0 0.0
2014-Oct-13 11:32N 58°17' E 011°27'0 0.0
2014-Oct-13 10:32N 58°17' E 011°27'0 0.0
2014-Oct-13 09:32N 58°17' E 011°27'0 0.0
2014-Oct-13 08:32N 58°17' E 011°27'0 0.0
2014-Oct-13 07:32N 58°17' E 011°27'0 0.0
2014-Oct-13 06:32N 58°17' E 011°27'0 0.0
2014-Oct-13 05:32N 58°17' E 011°27'0 0.0
2014-Oct-13 04:32N 58°17' E 011°27'0 0.0
2014-Oct-13 03:32N 58°17' E 011°27'0 0.0
2014-Oct-13 02:32N 58°17' E 011°27'0 0.0
2014-Oct-13 01:32N 58°17' E 011°27'0 0.0
2014-Oct-13 00:32N 58°17' E 011°27'  
Track history (hours):
 
Tides and Currents Weather Stations Pressure Air Temp Water Temp Dewpoint Dewpoint Depression Visibility Wind Speed Wind Dir Waves Ship Positions

Ida

Last reported at 2014-Oct-22 23:32 UTC. Time now 2014-Oct-23 02:22 UTC.
Position N 57°16' E 017°17'.

Length 82 m; draft 3.2 m.

Type: Cargo ship. MMSI: 210319000.

Date/timePositionNaut miles runAvg speedWind from/ knotsBaromVisibWave heightAir tempDewpointWater temp
2014-Oct-22 23:32N 57°16' E 017°17'85 7.1
2014-Oct-22 11:32N 55°57' E 016°23'46 7.7
2014-Oct-22 05:31N 55°34' E 015°12'9 9.3
2014-Oct-22 04:33N 55°29' E 014°58'9 9.2
2014-Oct-22 03:33N 55°25' E 014°44'9 9.0
2014-Oct-22 02:33N 55°19' E 014°32'9 9.0
2014-Oct-22 01:33N 55°12' E 014°21'8 8.3
2014-Oct-22 00:33N 55°10' E 014°07'9 8.6
2014-Oct-21 23:33N 55°11' E 013°52'10 8.6
2014-Oct-21 22:21N 55°12' E 013°34'17 9.0
2014-Oct-21 20:31N 55°14' E 013°05'8 8.7
2014-Oct-21 19:33N 55°15' E 012°51'8 8.1
2014-Oct-21 18:33N 55°19' E 012°38'7 7.2
2014-Oct-21 17:33N 55°26' E 012°40'8 7.8
2014-Oct-21 16:33N 55°34' E 012°42'8 8.3
2014-Oct-21 15:33N 55°42' E 012°41'9 8.7
2014-Oct-21 14:33N 55°51' E 012°40'8 8.5
2014-Oct-21 13:33N 55°59' E 012°38'8 7.9
2014-Oct-21 12:33N 56°06' E 012°32'9 8.5
2014-Oct-21 11:33N 56°14' E 012°25'9 9.1
2014-Oct-21 10:33N 56°22' E 012°19'10 9.1
2014-Oct-21 09:29N 56°32' E 012°15'9 8.9
2014-Oct-21 08:29N 56°40' E 012°09'9 9.2
2014-Oct-21 07:33N 56°49' E 012°05'11 9.4
2014-Oct-21 06:26N 56°59' E 011°59'9 9.8
2014-Oct-21 05:33N 57°06' E 011°53'1010.0
2014-Oct-21 04:33N 57°16' E 011°46'1010.5
2014-Oct-21 03:33N 57°26' E 011°40'9 9.4
2014-Oct-21 02:34N 57°35' E 011°38'8 8.1
2014-Oct-21 01:33N 57°41' E 011°49'7 7.0
2014-Oct-21 00:33N 57°44' E 012°00'7 6.7
2014-Oct-20 23:34N 57°51' E 012°00'9 8.7
2014-Oct-20 22:34N 57°59' E 012°08'9 9.0
2014-Oct-20 21:33N 58°08' E 012°07'5 5.0
2014-Oct-20 20:34N 58°13' E 012°09'4 4.3
2014-Oct-20 19:33N 58°16' E 012°15'2 1.6
2014-Oct-20 18:34N 58°17' E 012°17'4 4.0
2014-Oct-20 17:33N 58°21' E 012°21'4 4.5
2014-Oct-20 16:33N 58°25' E 012°21'9 9.1
2014-Oct-20 15:33N 58°31' E 012°33'9 9.2
2014-Oct-20 14:33N 58°39' E 012°45'9 9.1
2014-Oct-20 13:33N 58°43' E 012°60'4 0.1
2014-Oct-18 18:14N 58°40' E 012°55'6 9.0
2014-Oct-18 17:33N 58°36' E 012°47'9 9.0
2014-Oct-18 16:33N 58°30' E 012°33'9 8.9
2014-Oct-18 15:33N 58°25' E 012°20'4 4.3
2014-Oct-18 14:33N 58°20' E 012°21'5 5.3
2014-Oct-18 13:33N 58°16' E 012°16'0 0.3
2014-Oct-18 12:33N 58°16' E 012°15'6 6.0
2014-Oct-18 11:33N 58°11' E 012°07'4 3.8
2014-Oct-18 10:33N 58°08' E 012°07'5 5.5
2014-Oct-18 09:33N 58°02' E 012°09'7 6.6
2014-Oct-18 08:33N 57°56' E 012°04'7 6.7
2014-Oct-18 07:33N 57°50' E 012°01'6 6.2
2014-Oct-18 06:33N 57°44' E 011°60'7 6.6
2014-Oct-18 05:33N 57°41' E 011°48'7 7.4
2014-Oct-18 04:33N 57°37' E 011°36'8 7.6
2014-Oct-18 03:33N 57°43' E 011°28'8 7.6
2014-Oct-18 02:33N 57°50' E 011°22'8 7.8
2014-Oct-18 01:33N 57°57' E 011°15'8 7.9
2014-Oct-18 00:33N 58°04' E 011°10'8 7.6
2014-Oct-17 23:33N 58°12' E 011°06'8 7.6
2014-Oct-17 22:33N 58°19' E 011°02'8 7.6
2014-Oct-17 21:33N 58°26' E 010°58'8 7.8
2014-Oct-17 20:33N 58°34' E 010°53'8 7.9
2014-Oct-17 19:33N 58°41' E 010°49'8 8.1
2014-Oct-17 18:32N 58°49' E 010°47'9 8.7
2014-Oct-17 17:33N 58°58' E 010°45'6 5.9
2014-Oct-17 16:33N 59°01' E 010°55'7 6.7
2014-Oct-17 15:34N 59°07' E 010°58'4 4.1
2014-Oct-17 14:31N 59°11' E 010°57'0 0.0
2014-Oct-17 13:31N 59°11' E 010°57'0 0.0
2014-Oct-17 12:31N 59°11' E 010°57'0 0.0
2014-Oct-17 11:31N 59°11' E 010°57'0 0.0
2014-Oct-17 10:31N 59°11' E 010°57'0 0.0
2014-Oct-17 09:31N 59°11' E 010°57'0 0.0
2014-Oct-17 08:31N 59°11' E 010°57'0 0.0
2014-Oct-17 07:31N 59°11' E 010°57'0 0.0
2014-Oct-17 06:31N 59°11' E 010°57'0 0.0
2014-Oct-17 05:31N 59°11' E 010°57'0 0.0
2014-Oct-17 04:31N 59°11' E 010°57'0 0.0
2014-Oct-17 03:31N 59°11' E 010°57'0 0.0
2014-Oct-17 02:31N 59°11' E 010°57'0 0.0
2014-Oct-17 01:31N 59°11' E 010°57'0 0.0
2014-Oct-17 00:31N 59°11' E 010°57'0 0.0
2014-Oct-16 23:31N 59°11' E 010°57'0 0.0
2014-Oct-16 22:31N 59°11' E 010°57'0 0.0
2014-Oct-16 21:31N 59°11' E 010°57'0 0.0
2014-Oct-16 20:31N 59°11' E 010°57'0 0.0
2014-Oct-16 19:31N 59°11' E 010°57'0 0.0
2014-Oct-16 18:31N 59°11' E 010°57'0 0.0
2014-Oct-16 17:31N 59°11' E 010°57'0 0.0
2014-Oct-16 16:31N 59°11' E 010°57'0 0.0
2014-Oct-16 15:31N 59°11' E 010°57'0 0.0
2014-Oct-16 14:31N 59°11' E 010°57'0 0.0
2014-Oct-16 13:31N 59°11' E 010°57'0 0.0
2014-Oct-16 12:31N 59°11' E 010°57'0 0.0
2014-Oct-16 11:31N 59°11' E 010°57'0 0.0
2014-Oct-16 10:31N 59°11' E 010°57'0 0.0
2014-Oct-16 09:31N 59°11' E 010°57'0 0.0
2014-Oct-16 08:31N 59°11' E 010°57'0 0.0
2014-Oct-16 07:31N 59°11' E 010°57'0 0.0
2014-Oct-16 06:31N 59°11' E 010°57'0 0.0
2014-Oct-16 05:31N 59°11' E 010°57'0 0.0
2014-Oct-16 04:31N 59°11' E 010°57'0 0.0
2014-Oct-16 03:31N 59°11' E 010°57'0 0.0
2014-Oct-16 02:31N 59°11' E 010°57'0 0.0
2014-Oct-16 01:31N 59°11' E 010°57'0 0.0
2014-Oct-16 00:31N 59°11' E 010°57'0 0.0
2014-Oct-15 23:31N 59°11' E 010°57'0 0.0
2014-Oct-15 22:31N 59°11' E 010°57'0 0.0
2014-Oct-15 21:31N 59°11' E 010°57'0 0.0
2014-Oct-15 20:31N 59°11' E 010°57'0 0.0
2014-Oct-15 19:31N 59°11' E 010°57'0 0.0
2014-Oct-15 18:31N 59°11' E 010°57'0 0.0
2014-Oct-15 17:31N 59°11' E 010°57'0 0.0
2014-Oct-15 16:31N 59°11' E 010°57'0 0.0
2014-Oct-15 15:31N 59°11' E 010°57'0 0.0
2014-Oct-15 14:31N 59°11' E 010°57'0 0.0
2014-Oct-15 13:31N 59°11' E 010°57'0 0.0
2014-Oct-15 12:31N 59°11' E 010°57'0 0.0
2014-Oct-15 11:31N 59°11' E 010°57'0 0.0
2014-Oct-15 10:31N 59°11' E 010°57'0 0.0
2014-Oct-15 09:31N 59°11' E 010°57'0 0.0
2014-Oct-15 08:31N 59°11' E 010°57'0 0.0
2014-Oct-15 07:31N 59°11' E 010°57'0 0.0
2014-Oct-15 06:31N 59°11' E 010°57'0 0.0
2014-Oct-15 05:31N 59°11' E 010°57'0 0.0
2014-Oct-15 04:31N 59°11' E 010°57'0 0.0
2014-Oct-15 03:31N 59°11' E 010°57'0 0.0
2014-Oct-15 02:31N 59°11' E 010°57'0 0.0
2014-Oct-15 01:31N 59°11' E 010°57'0 0.0
2014-Oct-15 00:31N 59°11' E 010°57'0 0.0
2014-Oct-14 23:31N 59°11' E 010°57'0 0.0
2014-Oct-14 22:31N 59°11' E 010°57'0 0.0
2014-Oct-14 21:31N 59°11' E 010°57'0 0.0
2014-Oct-14 20:31N 59°11' E 010°57'0 0.0
2014-Oct-14 19:31N 59°11' E 010°57'0 0.0
2014-Oct-14 18:33N 59°11' E 010°57'7 6.5
2014-Oct-14 17:30N 59°05' E 010°58'6 6.4
2014-Oct-14 16:33N 59°01' E 010°48'17 8.7
2014-Oct-14 14:33N 58°44' E 010°47'10 9.7
2014-Oct-14 13:34N 58°35' E 010°54'1110.6
2014-Oct-14 12:33N 58°25' E 011°01'1010.0
2014-Oct-14 11:34N 58°16' E 011°11'8 8.4
2014-Oct-14 10:34N 58°16' E 011°27'0 0.2
2014-Oct-14 09:29N 58°17' E 011°27'0 0.0
2014-Oct-14 08:32N 58°17' E 011°27'0 0.0
2014-Oct-14 07:32N 58°17' E 011°27'0 0.0
2014-Oct-14 06:32N 58°17' E 011°27'0 0.0
2014-Oct-14 05:32N 58°17' E 011°27'0 0.0
2014-Oct-14 04:32N 58°17' E 011°27'0 0.0
2014-Oct-14 03:32N 58°17' E 011°27'0 0.0
2014-Oct-14 02:32N 58°17' E 011°27'0 0.0
2014-Oct-14 01:32N 58°17' E 011°27'0 0.0
2014-Oct-14 00:32N 58°17' E 011°27'0 0.0
2014-Oct-13 23:29N 58°17' E 011°27'0 0.0
2014-Oct-13 22:32N 58°17' E 011°27'0 0.0
2014-Oct-13 21:32N 58°17' E 011°27'0 0.0
2014-Oct-13 20:32N 58°17' E 011°27'0 0.0
2014-Oct-13 19:32N 58°17' E 011°27'0 0.0
2014-Oct-13 18:32N 58°17' E 011°27'0 0.0
2014-Oct-13 17:32N 58°17' E 011°27'0 0.0
2014-Oct-13 16:32N 58°17' E 011°27'0 0.0
2014-Oct-13 15:32N 58°17' E 011°27'0 0.0
2014-Oct-13 14:29N 58°17' E 011°27'0 0.0
2014-Oct-13 13:32N 58°17' E 011°27'0 0.0
2014-Oct-13 12:32N 58°17' E 011°27'0 0.0
2014-Oct-13 11:32N 58°17' E 011°27'0 0.0
2014-Oct-13 10:32N 58°17' E 011°27'0 0.0
2014-Oct-13 09:32N 58°17' E 011°27'0 0.0
2014-Oct-13 08:32N 58°17' E 011°27'0 0.0
2014-Oct-13 07:32N 58°17' E 011°27'0 0.0
2014-Oct-13 06:32N 58°17' E 011°27'0 0.0
2014-Oct-13 05:32N 58°17' E 011°27'0 0.0
2014-Oct-13 04:32N 58°17' E 011°27'0 0.0
2014-Oct-13 03:32N 58°17' E 011°27'0 0.0
2014-Oct-13 02:32N 58°17' E 011°27'0 0.0
2014-Oct-13 01:32N 58°17' E 011°27'0 0.0
2014-Oct-13 00:32N 58°17' E 011°27'  

Dump ship's entire track history